Time;durP1;ratioP1;P1;durP2;ratioP2;P2;SDS_P1;SDS_P2;PMS_P1;PMS_P2;Temp;Humidity;BMP_temperature;BMP_pressure;BME280_temperature;BME280_humidity;BME280_pressure;Samples;Min_cycle;Max_cycle;Signal;HPM_P1;HPM_P2
2020/12/02 00:01:36;;;;;;;3;2.2;;;;;;;;;;;;;
2020/12/02 00:04:05;;;;;;;4.6;2.9;;;;;;;;;;;;;
2020/12/02 00:06:26;;;;;;;4.5;2.9;;;;;;;;;;;;;
2020/12/02 00:08:53;;;;;;;3.4;2.6;;;;;;;;;;;;;
2020/12/02 00:11:17;;;;;;;2.2;2;;;;;;;;;;;;;
2020/12/02 00:13:42;;;;;;;4.6;2.7;;;;;;;;;;;;;
2020/12/02 00:16:07;;;;;;;2.6;1.7;;;;;;;;;;;;;
2020/12/02 00:18:34;;;;;;;4.1;2.7;;;;;;;;;;;;;
2020/12/02 00:20:59;;;;;;;2.6;2.1;;;;;;;;;;;;;
2020/12/02 00:23:24;;;;;;;3.4;2.8;;;;;;;;;;;;;
2020/12/02 00:25:49;;;;;;;2.7;1.8;;;;;;;;;;;;;
2020/12/02 00:28:14;;;;;;;3.8;2.9;;;;;;;;;;;;;
2020/12/02 00:30:39;;;;;;;3;2.3;;;;;;;;;;;;;
2020/12/02 00:33:05;;;;;;;4.4;2.9;;;;;;;;;;;;;
2020/12/02 00:35:30;;;;;;;5.4;3.1;;;;;;;;;;;;;
2020/12/02 00:37:56;;;;;;;3.8;2.8;;;;;;;;;;;;;
2020/12/02 00:40:21;;;;;;;5.1;3;;;;;;;;;;;;;
2020/12/02 00:42:47;;;;;;;3.8;2.9;;;;;;;;;;;;;
2020/12/02 00:45:12;;;;;;;4;2.3;;;;;;;;;;;;;
2020/12/02 00:47:38;;;;;;;4.1;2.7;;;;;;;;;;;;;
2020/12/02 00:50:04;;;;;;;5;3;;;;;;;;;;;;;
2020/12/02 00:52:29;;;;;;;2.8;2.5;;;;;;;;;;;;;
2020/12/02 00:54:54;;;;;;;4.3;2.7;;;;;;;;;;;;;
2020/12/02 00:57:20;;;;;;;2.2;1.8;;;;;;;;;;;;;
2020/12/02 00:59:45;;;;;;;4;2.8;;;;;;;;;;;;;
2020/12/02 01:02:13;;;;;;;6.3;2.1;;;;;;;;;;;;;
2020/12/02 01:04:38;;;;;;;5.1;3.5;;;;;;;;;;;;;
2020/12/02 01:07:04;;;;;;;2;1.6;;;;;;;;;;;;;
2020/12/02 01:09:29;;;;;;;4.5;3.3;;;;;;;;;;;;;
2020/12/02 01:11:54;;;;;;;3.8;2.7;;;;;;;;;;;;;
2020/12/02 01:14:19;;;;;;;3;2.2;;;;;;;;;;;;;
2020/12/02 01:16:46;;;;;;;2.6;1.8;;;;;;;;;;;;;
2020/12/02 01:19:12;;;;;;;3.3;2.2;;;;;;;;;;;;;
2020/12/02 01:21:37;;;;;;;3.8;2.4;;;;;;;;;;;;;
2020/12/02 01:24:02;;;;;;;2.7;2;;;;;;;;;;;;;
2020/12/02 01:26:27;;;;;;;3.2;2.6;;;;;;;;;;;;;
2020/12/02 01:28:52;;;;;;;2.3;1.7;;;;;;;;;;;;;
2020/12/02 01:31:19;;;;;;;4.2;2.4;;;;;;;;;;;;;
2020/12/02 01:33:44;;;;;;;4.4;2.1;;;;;;;;;;;;;
2020/12/02 01:36:09;;;;;;;5.3;2.9;;;;;;;;;;;;;
2020/12/02 01:38:34;;;;;;;2.2;1.7;;;;;;;;;;;;;
2020/12/02 01:41:03;;;;;;;4.8;2.9;;;;;;;;;;;;;
2020/12/02 01:43:28;;;;;;;3.1;2.3;;;;;;;;;;;;;
2020/12/02 01:45:53;;;;;;;5.8;2.6;;;;;;;;;;;;;
2020/12/02 01:48:19;;;;;;;2.6;1.8;;;;;;;;;;;;;
2020/12/02 01:50:43;;;;;;;4.1;2.4;;;;;;;;;;;;;
2020/12/02 01:53:09;;;;;;;6.7;2.3;;;;;;;;;;;;;
2020/12/02 01:55:34;;;;;;;5.2;2.9;;;;;;;;;;;;;
2020/12/02 01:57:59;;;;;;;4.4;2.2;;;;;;;;;;;;;
2020/12/02 02:00:24;;;;;;;4.5;2.3;;;;;;;;;;;;;
2020/12/02 02:02:54;;;;;;;5.1;2.8;;;;;;;;;;;;;
2020/12/02 02:05:18;;;;;;;3.5;2.5;;;;;;;;;;;;;
2020/12/02 02:07:41;;;;;;;4.3;2.8;;;;;;;;;;;;;
2020/12/02 02:10:10;;;;;;;5.2;2.5;;;;;;;;;;;;;
2020/12/02 02:12:40;;;;;;;4.8;2.9;;;;;;;;;;;;;
2020/12/02 02:15:04;;;;;;;2.6;2.2;;;;;;;;;;;;;
2020/12/02 02:17:32;;;;;;;5;2.9;;;;;;;;;;;;;
2020/12/02 02:19:54;;;;;;;3.3;2.2;;;;;;;;;;;;;
2020/12/02 02:22:18;;;;;;;6.1;3.3;;;;;;;;;;;;;
2020/12/02 02:24:44;;;;;;;4.2;2.7;;;;;;;;;;;;;
2020/12/02 02:27:10;;;;;;;2.7;1.8;;;;;;;;;;;;;
2020/12/02 02:29:35;;;;;;;6.7;3.3;;;;;;;;;;;;;
2020/12/02 02:32:02;;;;;;;4.9;2.8;;;;;;;;;;;;;
2020/12/02 02:34:27;;;;;;;3.8;2.9;;;;;;;;;;;;;
2020/12/02 02:36:53;;;;;;;3.3;2.2;;;;;;;;;;;;;
2020/12/02 02:39:18;;;;;;;3.2;2.2;;;;;;;;;;;;;
2020/12/02 02:41:45;;;;;;;2.5;2;;;;;;;;;;;;;
2020/12/02 02:44:10;;;;;;;4.2;2.4;;;;;;;;;;;;;
2020/12/02 02:46:36;;;;;;;4.5;2.6;;;;;;;;;;;;;
2020/12/02 02:49:01;;;;;;;2.7;1.7;;;;;;;;;;;;;
2020/12/02 02:51:26;;;;;;;4.4;2.1;;;;;;;;;;;;;
2020/12/02 02:53:51;;;;;;;2.1;1.9;;;;;;;;;;;;;
2020/12/02 02:56:17;;;;;;;4.4;2.7;;;;;;;;;;;;;
2020/12/02 02:58:42;;;;;;;4.4;2.6;;;;;;;;;;;;;
2020/12/02 03:01:09;;;;;;;4.8;3.4;;;;;;;;;;;;;
2020/12/02 03:03:33;;;;;;;4.2;2;;;;;;;;;;;;;
2020/12/02 03:05:58;;;;;;;4.1;2.9;;;;;;;;;;;;;
2020/12/02 03:08:24;;;;;;;2.9;2;;;;;;;;;;;;;
2020/12/02 03:10:49;;;;;;;3.8;2.7;;;;;;;;;;;;;
2020/12/02 03:13:14;;;;;;;3.1;2.4;;;;;;;;;;;;;
2020/12/02 03:15:40;;;;;;;5.2;2.6;;;;;;;;;;;;;
2020/12/02 03:18:05;;;;;;;4.8;2.5;;;;;;;;;;;;;
2020/12/02 03:20:32;;;;;;;3.7;2.4;;;;;;;;;;;;;
2020/12/02 03:22:57;;;;;;;4.2;2.8;;;;;;;;;;;;;
2020/12/02 03:25:23;;;;;;;4.6;2;;;;;;;;;;;;;
2020/12/02 03:27:48;;;;;;;8.1;3.3;;;;;;;;;;;;;
2020/12/02 03:30:17;;;;;;;5.4;2.7;;;;;;;;;;;;;
2020/12/02 03:32:41;;;;;;;4.3;3.1;;;;;;;;;;;;;
2020/12/02 03:35:06;;;;;;;5.3;3;;;;;;;;;;;;;
2020/12/02 03:37:32;;;;;;;4.4;3.1;;;;;;;;;;;;;
2020/12/02 03:39:57;;;;;;;3.2;2.5;;;;;;;;;;;;;
2020/12/02 03:42:22;;;;;;;3.4;2.2;;;;;;;;;;;;;
2020/12/02 03:44:48;;;;;;;4.8;2.3;;;;;;;;;;;;;
2020/12/02 03:47:13;;;;;;;5.9;3;;;;;;;;;;;;;
2020/12/02 03:49:39;;;;;;;5;2.9;;;;;;;;;;;;;
2020/12/02 03:52:04;;;;;;;2.7;2.1;;;;;;;;;;;;;
2020/12/02 03:54:31;;;;;;;8.8;3.3;;;;;;;;;;;;;
2020/12/02 03:56:56;;;;;;;6.7;3.9;;;;;;;;;;;;;
2020/12/02 03:59:22;;;;;;;5.8;3.2;;;;;;;;;;;;;
2020/12/02 04:02:31;;;;;;;7.4;3.5;;;;;;;2.5;85.97852;934.7794;;;;
2020/12/02 04:05:00;;;;;;;5.5;2.9;;;;;;;2.35;86.57715;934.7953;;;;
2020/12/02 04:07:25;;;;;;;4.1;2.3;;;;;;;2.35;86.59961;934.7898;;;;
2020/12/02 04:09:51;;;;;;;3.2;2.6;;;;;;;2.39;86.36035;934.7981;;;;
2020/12/02 04:12:16;;;;;;;3.5;2.5;;;;;;;2.2;87.01758;934.7706;;;;
2020/12/02 04:14:47;;;;;;;4.4;2.7;;;;;;;2.23;87.17773;934.8176;;;;
2020/12/02 04:17:11;;;;;;;4.3;3.2;;;;;;;2.13;87.24707;934.7725;;;;
2020/12/02 04:19:39;;;;;;;4.4;3.4;;;;;;;2.22;86.96582;934.6724;;;;
2020/12/02 04:22:04;;;;;;;4.5;2.8;;;;;;;2.09;87.51074;934.739;;;;
2020/12/02 04:24:32;;;;;;;7.7;2.6;;;;;;;2.19;87.26953;934.7578;;;;
2020/12/02 04:26:57;;;;;;;3.1;2;;;;;;;2.09;87.21582;934.7175;;;;
2020/12/02 04:29:26;;;;;;;5.9;3.1;;;;;;;2.1;87.35352;934.7203;;;;
2020/12/02 04:31:54;;;;;;;3.6;2.6;;;;;;;2.23;87.09082;934.7245;;;;
2020/12/02 04:34:23;;;;;;;5.3;3.4;;;;;;;2.4;86.23828;934.6892;;;;
2020/12/02 04:36:48;;;;;;;4.1;2.7;;;;;;;2.31;86.13086;934.7098;;;;
2020/12/02 04:39:17;;;;;;;6.2;3.5;;;;;;;2.45;85.70117;934.7078;;;;
2020/12/02 04:41:42;;;;;;;4.5;3.6;;;;;;;2.31;85.97363;934.7459;;;;
2020/12/02 04:44:10;;;;;;;3.3;2.6;;;;;;;2.43;85.6748;934.733;;;;
2020/12/02 04:46:36;;;;;;;6.4;3.9;;;;;;;2.34;85.7998;934.75;;;;
2020/12/02 04:49:06;;;;;;;3.4;2.7;;;;;;;2.04;86.55859;934.7238;;;;
2020/12/02 04:51:31;;;;;;;5;3.5;;;;;;;2.02;87.21582;934.7263;;;;
2020/12/02 04:53:56;;;;;;;5.4;3.1;;;;;;;2.01;87.52539;934.6379;;;;
2020/12/02 04:56:24;;;;;;;6.4;3.8;;;;;;;2.23;87.06641;934.7234;;;;
2020/12/02 04:58:47;;;;;;;5.9;3.5;;;;;;;2.34;86.50781;934.6936;;;;
2020/12/02 05:01:19;;;;;;;4.5;3;;;;;;;2.37;86.03125;934.7943;;;;
2020/12/02 05:03:44;;;;;;;4;3.1;;;;;;;2.02;87.81836;934.6978;;;;
2020/12/02 05:06:12;;;;;;;4.6;3;;;;;;;1.94;87.8457;934.7629;;;;
2020/12/02 05:08:37;;;;;;;5.8;3.6;;;;;;;2.17;87.39063;934.7322;;;;
2020/12/02 05:11:14;;;;;;;6.6;3;;;;;;;2.12;87.22461;934.7502;;;;
2020/12/02 05:13:39;;;;;;;4.2;3.1;;;;;;;2.2;86.87012;934.6404;;;;
2020/12/02 05:16:06;;;;;;;10.7;5;;;;;;;2.26;86.45605;934.683;;;;
2020/12/02 05:18:31;;;;;;;5.9;3.8;;;;;;;2.2;85.90918;934.6606;;;;
2020/12/02 05:20:59;;;;;;;5.7;3.6;;;;;;;2.35;85.88281;934.7269;;;;
2020/12/02 05:23:28;;;;;;;5.6;2.9;;;;;;;2.42;85.57031;934.6219;;;;
2020/12/02 05:25:52;;;;;;;5;3;;;;;;;2.31;85.67188;934.618;;;;
2020/12/02 05:28:17;;;;;;;5.4;3.6;;;;;;;2.24;85.93652;934.6744;;;;
2020/12/02 05:30:47;;;;;;;10.1;4.5;;;;;;;2.4;85.34473;934.57;;;;
2020/12/02 05:33:16;;;;;;;6.6;3.8;;;;;;;2.45;84.81543;934.6064;;;;
2020/12/02 05:35:42;;;;;;;6;3.4;;;;;;;2.5;84.51074;934.5231;;;;
2020/12/02 05:38:07;;;;;;;5.9;3.8;;;;;;;2.25;84.62988;934.5953;;;;
2020/12/02 05:40:33;;;;;;;7.6;4;;;;;;;2.18;85.15332;934.6241;;;;
2020/12/02 05:43:00;;;;;;;10.1;4.9;;;;;;;2.32;84.72168;934.6127;;;;
2020/12/02 05:45:28;;;;;;;9.3;4.1;;;;;;;2.39;84.31055;934.6309;;;;
2020/12/02 05:47:54;;;;;;;4.4;3.6;;;;;;;2.39;84.35449;934.7164;;;;
2020/12/02 05:50:19;;;;;;;6.2;4.3;;;;;;;2.26;84.6543;934.6933;;;;
2020/12/02 05:52:44;;;;;;;8.9;4;;;;;;;2.19;85.02051;934.6867;;;;
2020/12/02 05:55:13;;;;;;;7.8;4.2;;;;;;;2.19;85.2002;934.7031;;;;
2020/12/02 05:57:38;;;;;;;4.1;3.4;;;;;;;2.32;84.79004;934.6694;;;;
2020/12/02 06:00:05;;;;;;;8.4;4.2;;;;;;;2.22;84.51074;934.6666;;;;
2020/12/02 06:02:30;;;;;;;5.3;3.4;;;;;;;2.06;84.9375;934.6671;;;;
2020/12/02 06:05:00;;;;;;;4.9;2.9;;;;;;;2.02;85.55762;934.5762;;;;
2020/12/02 06:07:25;;;;;;;6.2;3.6;;;;;;;1.8;86.21875;934.6302;;;;
2020/12/02 06:09:50;;;;;;;8.1;4.3;;;;;;;1.68;86.33789;934.6529;;;;
2020/12/02 06:12:15;;;;;;;11.2;4.1;;;;;;;1.72;86.51465;934.7061;;;;
2020/12/02 06:14:40;;;;;;;7.9;4.7;;;;;;;1.48;87.35059;934.666;;;;
2020/12/02 06:17:09;;;;;;;9.6;4.5;;;;;;;1.6;87.28516;934.7147;;;;
2020/12/02 06:19:33;;;;;;;8.2;4.3;;;;;;;1.52;87.34668;934.7905;;;;
2020/12/02 06:21:58;;;;;;;8.5;5.1;;;;;;;1.48;87.64063;934.7615;;;;
2020/12/02 06:24:23;;;;;;;7;4.8;;;;;;;1.65;87.33887;934.7177;;;;
2020/12/02 06:26:48;;;;;;;6.6;3.8;;;;;;;1.74;86.96777;934.7792;;;;
2020/12/02 06:29:18;;;;;;;9.1;5.5;;;;;;;1.78;86.59277;934.6839;;;;
2020/12/02 06:31:46;;;;;;;7.1;4.5;;;;;;;1.77;85.98926;934.6311;;;;
2020/12/02 06:34:14;;;;;;;6.8;4.6;;;;;;;1.62;86.16992;934.7127;;;;
2020/12/02 06:36:40;;;;;;;8.5;5.7;;;;;;;1.58;86.55469;934.6923;;;;
2020/12/02 06:39:06;;;;;;;7.6;4.4;;;;;;;1.5;86.68262;934.742;;;;
2020/12/02 06:41:31;;;;;;;9.5;4.9;;;;;;;1.45;86.82813;934.7085;;;;
2020/12/02 06:43:56;;;;;;;14.2;5.1;;;;;;;1.54;86.60059;934.6281;;;;
2020/12/02 06:46:25;;;;;;;7;4.5;;;;;;;1.42;86.95508;934.5762;;;;
2020/12/02 06:48:50;;;;;;;10.6;5;;;;;;;1.48;87.13574;934.5566;;;;
2020/12/02 06:51:15;;;;;;;9.3;5.1;;;;;;;1.47;87.0127;934.5101;;;;
2020/12/02 06:53:40;;;;;;;10.4;5.9;;;;;;;1.55;86.74609;934.5567;;;;
2020/12/02 06:56:08;;;;;;;7.9;5.4;;;;;;;1.63;86.27148;934.5428;;;;
2020/12/02 06:58:34;;;;;;;14.3;6.4;;;;;;;1.38;87.2627;934.5639;;;;
2020/12/02 07:00:59;;;;;;;10;4.7;;;;;;;1.5;86.80469;934.45;;;;
2020/12/02 07:03:24;;;;;;;5.3;4;;;;;;;1.73;86.19238;934.5002;;;;
2020/12/02 07:05:49;;;;;;;6.5;4.7;;;;;;;1.8;85.56934;934.4952;;;;
2020/12/02 07:08:14;;;;;;;10.9;5.3;;;;;;;1.77;85.3291;934.5734;;;;
2020/12/02 07:10:45;;;;;;;10.5;4.9;;;;;;;1.71;85.23828;934.5945;;;;
2020/12/02 07:13:10;;;;;;;10.9;5.3;;;;;;;1.92;85.06738;934.6266;;;;
2020/12/02 07:15:41;;;;;;;11;5.1;;;;;;;1.85;84.61621;934.6608;;;;
2020/12/02 07:18:10;;;;;;;9.3;5.8;;;;;;;1.76;85.21387;934.6675;;;;
2020/12/02 07:20:35;;;;;;;11;5.7;;;;;;;1.86;85.54688;934.6909;;;;
2020/12/02 07:23:00;;;;;;;10.5;6;;;;;;;1.69;85.21191;934.5591;;;;
2020/12/02 07:25:26;;;;;;;9.3;5.3;;;;;;;1.78;85.11621;934.6691;;;;
2020/12/02 07:27:51;;;;;;;6.9;4.8;;;;;;;1.87;85.02441;934.5675;;;;
2020/12/02 07:30:17;;;;;;;8.6;5.1;;;;;;;1.81;84.94434;934.4986;;;;
2020/12/02 07:32:42;;;;;;;7.3;5.5;;;;;;;1.68;84.94141;934.595;;;;
2020/12/02 07:35:09;;;;;;;9.5;5.3;;;;;;;1.5;85.41797;934.5692;;;;
2020/12/02 07:37:35;;;;;;;8.2;5;;;;;;;1.53;85.40332;934.5867;;;;
2020/12/02 07:40:01;;;;;;;6.3;4.4;;;;;;;1.49;85.56348;934.5775;;;;
2020/12/02 07:42:26;;;;;;;10.7;6;;;;;;;1.3;86.10645;934.5631;;;;
2020/12/02 07:44:51;;;;;;;9.2;4.5;;;;;;;1.21;86.80078;934.5887;;;;
2020/12/02 07:47:16;;;;;;;9.9;5.7;;;;;;;1.15;87.27148;934.5478;;;;
2020/12/02 07:49:45;;;;;;;11.5;5.8;;;;;;;1.23;86.92773;934.4928;;;;
2020/12/02 07:52:11;;;;;;;10.1;5.8;;;;;;;1.32;86.68945;934.4916;;;;
2020/12/02 07:54:37;;;;;;;11;6;;;;;;;1.34;86.73926;934.5974;;;;
2020/12/02 07:57:01;;;;;;;11.2;5.8;;;;;;;1.35;86.14844;934.5491;;;;
2020/12/02 07:59:27;;;;;;;10.9;5.9;;;;;;;1.39;85.91016;934.5342;;;;
2020/12/02 08:01:52;;;;;;;16.6;6.9;;;;;;;1.46;85.69238;934.5366;;;;
2020/12/02 08:04:22;;;;;;;6.2;4.7;;;;;;;1.57;85.54395;934.4644;;;;
2020/12/02 08:06:47;;;;;;;9.5;5.7;;;;;;;1.48;85.05664;934.4822;;;;
2020/12/02 08:09:13;;;;;;;12.6;5.6;;;;;;;1.4;85.28613;934.5118;;;;
2020/12/02 08:11:39;;;;;;;11.2;5.2;;;;;;;1.33;85.79688;934.5233;;;;
2020/12/02 08:14:04;;;;;;;8.7;5.7;;;;;;;1.42;85.44824;934.5106;;;;
2020/12/02 08:16:31;;;;;;;11;7;;;;;;;1.31;85.51563;934.5195;;;;
2020/12/02 08:18:56;;;;;;;8.2;5.4;;;;;;;1.33;85.70898;934.4702;;;;
2020/12/02 08:21:22;;;;;;;8.3;5.6;;;;;;;1.23;86.20313;934.5142;;;;
2020/12/02 08:23:47;;;;;;;13.1;6.8;;;;;;;1.33;86.2666;934.4637;;;;
2020/12/02 08:26:12;;;;;;;8.9;5.6;;;;;;;1.38;86.20117;934.5105;;;;
2020/12/02 08:28:40;;;;;;;9.6;5.4;;;;;;;1.32;86.1084;934.5441;;;;
2020/12/02 08:31:04;;;;;;;15.4;6.8;;;;;;;1.33;85.80078;934.5588;;;;
2020/12/02 08:33:29;;;;;;;14.1;6.5;;;;;;;1.22;86.05371;934.5255;;;;
2020/12/02 08:35:55;;;;;;;7.4;5;;;;;;;1.03;86.4082;934.5736;;;;
2020/12/02 08:38:20;;;;;;;7.4;5.8;;;;;;;1.18;86.43945;934.4361;;;;
2020/12/02 08:40:45;;;;;;;10.5;6.7;;;;;;;1.13;86.25879;934.5287;;;;
2020/12/02 08:43:12;;;;;;;7.7;5.3;;;;;;;1.08;86.23926;934.5151;;;;
2020/12/02 08:45:39;;;;;;;11.2;6.2;;;;;;;1.14;86.2168;934.3755;;;;
2020/12/02 08:48:04;;;;;;;8.6;5.7;;;;;;;1.07;85.8457;934.5197;;;;
2020/12/02 08:50:30;;;;;;;11.4;5.6;;;;;;;1.01;86.3916;934.4944;;;;
2020/12/02 08:52:55;;;;;;;7.5;5.2;;;;;;;1.05;86.89258;934.5588;;;;
2020/12/02 08:55:21;;;;;;;11.6;5.8;;;;;;;0.86;86.36035;934.5392;;;;
2020/12/02 08:57:47;;;;;;;10.5;4.7;;;;;;;1;86.46777;934.543;;;;
2020/12/02 09:00:15;;;;;;;14.2;5.7;;;;;;;1.08;85.98242;934.5897;;;;
2020/12/02 09:02:40;;;;;;;8.5;5.4;;;;;;;1.19;85.99316;934.4441;;;;
2020/12/02 09:05:08;;;;;;;10.4;6.1;;;;;;;1.31;85.54785;934.4864;;;;
2020/12/02 09:07:33;;;;;;;11.1;7.1;;;;;;;1.37;85.09082;934.4808;;;;
2020/12/02 09:09:59;;;;;;;13.4;6.1;;;;;;;1.31;84.78906;934.4355;;;;
2020/12/02 09:12:25;;;;;;;11.6;5.8;;;;;;;1.45;84.08789;934.4347;;;;
2020/12/02 09:14:50;;;;;;;9.2;6.1;;;;;;;1.31;84.64453;934.4442;;;;
2020/12/02 09:17:15;;;;;;;9.3;5.4;;;;;;;1.3;84.52832;934.4509;;;;
2020/12/02 09:19:42;;;;;;;10.7;5.2;;;;;;;1.49;84.37793;934.3781;;;;
2020/12/02 09:22:06;;;;;;;14.6;6.3;;;;;;;1.51;83.75586;934.4158;;;;
2020/12/02 09:24:32;;;;;;;7.2;4.4;;;;;;;;;;;;;
2020/12/02 09:26:57;;;;;;;8.1;5.7;;;;;;;;;;;;;
2020/12/02 09:29:23;;;;;;;12.6;4.6;;;;;;;;;;;;;
2020/12/02 09:31:48;;;;;;;13;5.8;;;;;;;;;;;;;
2020/12/02 09:34:17;;;;;;;13;6.2;;;;;;;;;;;;;
2020/12/02 09:36:40;;;;;;;15.4;6;;;;;;;;;;;;;
2020/12/02 09:39:05;;;;;;;10.5;6.2;;;;;;;;;;;;;
2020/12/02 09:41:30;;;;;;;9.7;4.6;;;;;;;;;;;;;
2020/12/02 09:44:00;;;;;;;10.5;6.9;;;;;;;;;;;;;
2020/12/02 09:46:20;;;;;;;12;6;;;;;;;;;;;;;
2020/12/02 09:48:45;;;;;;;13;6.4;;;;;;;;;;;;;
2020/12/02 09:51:10;;;;;;;10.5;6.6;;;;;;;;;;;;;
2020/12/02 09:53:36;;;;;;;12.2;5.6;;;;;;;;;;;;;
2020/12/02 09:56:01;;;;;;;10.8;6.5;;;;;;;;;;;;;
2020/12/02 09:58:27;;;;;;;9;5.2;;;;;;;;;;;;;
2020/12/02 10:00:53;;;;;;;9.8;6.3;;;;;;;;;;;;;
2020/12/02 10:03:19;;;;;;;8.4;5.7;;;;;;;;;;;;;
2020/12/02 10:05:44;;;;;;;13;6.5;;;;;;;;;;;;;
2020/12/02 10:08:09;;;;;;;13.4;7.7;;;;;;;;;;;;;
2020/12/02 10:10:34;;;;;;;11.3;5.4;;;;;;;;;;;;;
2020/12/02 10:13:00;;;;;;;10.1;4.9;;;;;;;;;;;;;
2020/12/02 10:15:24;;;;;;;9.9;6;;;;;;;;;;;;;
2020/12/02 10:17:49;;;;;;;11.1;5.9;;;;;;;;;;;;;
2020/12/02 10:20:15;;;;;;;9.7;6.2;;;;;;;;;;;;;
2020/12/02 10:22:40;;;;;;;11.9;6.8;;;;;;;;;;;;;
2020/12/02 10:25:05;;;;;;;11.9;5.8;;;;;;;;;;;;;
2020/12/02 10:27:30;;;;;;;14;6.8;;;;;;;;;;;;;
2020/12/02 10:29:55;;;;;;;9.8;5.5;;;;;;;;;;;;;
2020/12/02 10:32:21;;;;;;;10.7;5.9;;;;;;;;;;;;;
2020/12/02 10:34:46;;;;;;;14.5;7.3;;;;;;;;;;;;;
2020/12/02 10:37:11;;;;;;;7.5;5.6;;;;;;;;;;;;;
2020/12/02 10:39:36;;;;;;;12.1;7.1;;;;;;;;;;;;;
2020/12/02 10:42:01;;;;;;;9.4;5.3;;;;;;;;;;;;;
2020/12/02 10:44:26;;;;;;;19.4;10.2;;;;;;;;;;;;;
2020/12/02 10:46:51;;;;;;;12.1;5.7;;;;;;;;;;;;;
2020/12/02 10:49:17;;;;;;;11.4;5.3;;;;;;;;;;;;;
2020/12/02 10:51:42;;;;;;;17.2;6.4;;;;;;;;;;;;;
2020/12/02 10:54:07;;;;;;;11.9;6.8;;;;;;;;;;;;;
2020/12/02 10:56:33;;;;;;;19;8;;;;;;;;;;;;;
2020/12/02 10:58:58;;;;;;;12.6;7.3;;;;;;;;;;;;;
2020/12/02 11:01:24;;;;;;;10.6;5.7;;;;;;;;;;;;;
2020/12/02 11:03:50;;;;;;;13;6;;;;;;;;;;;;;
2020/12/02 11:06:15;;;;;;;14.1;7.5;;;;;;;;;;;;;
2020/12/02 11:08:41;;;;;;;14.4;5.9;;;;;;;;;;;;;
2020/12/02 11:11:06;;;;;;;13.1;6.2;;;;;;;;;;;;;
2020/12/02 11:13:32;;;;;;;17.9;7.3;;;;;;;;;;;;;
2020/12/02 11:15:57;;;;;;;11;6.1;;;;;;;;;;;;;
2020/12/02 11:18:22;;;;;;;14.2;6.1;;;;;;;;;;;;;
2020/12/02 11:20:47;;;;;;;9.8;6;;;;;;;;;;;;;
2020/12/02 11:23:13;;;;;;;17.8;7.6;;;;;;;;;;;;;
2020/12/02 11:25:38;;;;;;;10.5;5.7;;;;;;;;;;;;;
2020/12/02 11:28:04;;;;;;;16.1;6.6;;;;;;;;;;;;;
2020/12/02 11:30:29;;;;;;;10.3;6.1;;;;;;;;;;;;;
2020/12/02 11:32:54;;;;;;;19.6;6.2;;;;;;;;;;;;;
2020/12/02 11:35:19;;;;;;;10.9;6.6;;;;;;;;;;;;;
2020/12/02 11:37:44;;;;;;;8.3;5.8;;;;;;;;;;;;;
2020/12/02 11:40:10;;;;;;;12.5;5.5;;;;;;;;;;;;;
2020/12/02 11:42:35;;;;;;;7.2;5.1;;;;;;;;;;;;;
2020/12/02 11:45:00;;;;;;;12.6;5.8;;;;;;;;;;;;;
2020/12/02 11:47:27;;;;;;;10.4;6;;;;;;;;;;;;;
2020/12/02 11:49:51;;;;;;;12.6;6.5;;;;;;;;;;;;;
2020/12/02 11:52:16;;;;;;;12.1;6.6;;;;;;;;;;;;;
2020/12/02 11:54:41;;;;;;;10.8;5.1;;;;;;;;;;;;;
2020/12/02 11:57:09;;;;;;;11.9;6.8;;;;;;;;;;;;;
2020/12/02 11:59:34;;;;;;;10.1;5.7;;;;;;;;;;;;;
2020/12/02 12:01:59;;;;;;;10.4;6;;;;;;;;;;;;;
2020/12/02 12:04:24;;;;;;;11.7;6.1;;;;;;;;;;;;;
2020/12/02 12:06:49;;;;;;;11.7;6.5;;;;;;;;;;;;;
2020/12/02 12:09:14;;;;;;;12.6;6.9;;;;;;;;;;;;;
2020/12/02 12:11:40;;;;;;;14.3;6.9;;;;;;;;;;;;;
2020/12/02 12:14:05;;;;;;;20.4;7;;;;;;;;;;;;;
2020/12/02 12:16:31;;;;;;;9.8;5.5;;;;;;;;;;;;;
2020/12/02 12:18:56;;;;;;;18.6;7.2;;;;;;;;;;;;;
2020/12/02 12:21:21;;;;;;;10.3;6.1;;;;;;;;;;;;;
2020/12/02 12:23:46;;;;;;;12.3;6.3;;;;;;;;;;;;;
2020/12/02 12:26:12;;;;;;;9.6;5.9;;;;;;;;;;;;;
2020/12/02 12:28:38;;;;;;;12.4;6;;;;;;;;;;;;;
2020/12/02 12:31:04;;;;;;;11.8;6.2;;;;;;;;;;;;;
2020/12/02 12:33:29;;;;;;;7.7;6;;;;;;;;;;;;;
2020/12/02 12:35:54;;;;;;;11.9;5.1;;;;;;;;;;;;;
2020/12/02 12:38:20;;;;;;;9;5.8;;;;;;;;;;;;;
2020/12/02 12:40:44;;;;;;;12;6.2;;;;;;;;;;;;;
2020/12/02 12:43:10;;;;;;;19.7;7.1;;;;;;;;;;;;;
2020/12/02 12:45:37;;;;;;;11.9;7.3;;;;;;;;;;;;;
2020/12/02 12:48:02;;;;;;;9.9;5.2;;;;;;;;;;;;;
2020/12/02 12:50:29;;;;;;;14.7;7.1;;;;;;;;;;;;;
2020/12/02 12:52:54;;;;;;;17.8;6.7;;;;;;;;;;;;;
2020/12/02 12:55:19;;;;;;;14.2;6;;;;;;;;;;;;;
2020/12/02 12:57:44;;;;;;;9.3;6.5;;;;;;;;;;;;;
2020/12/02 13:00:10;;;;;;;9;6.5;;;;;;;;;;;;;
2020/12/02 13:02:36;;;;;;;7.3;5.1;;;;;;;;;;;;;
2020/12/02 13:05:01;;;;;;;9.1;6;;;;;;;;;;;;;
2020/12/02 13:07:26;;;;;;;17.1;6.9;;;;;;;;;;;;;
2020/12/02 13:09:53;;;;;;;10;6.2;;;;;;;;;;;;;
2020/12/02 13:12:16;;;;;;;12.4;6.3;;;;;;;;;;;;;
2020/12/02 13:14:42;;;;;;;8.9;6.1;;;;;;;;;;;;;
2020/12/02 13:17:07;;;;;;;11.3;6;;;;;;;;;;;;;
2020/12/02 13:19:32;;;;;;;11.3;6;;;;;;;;;;;;;
2020/12/02 13:21:58;;;;;;;15;6.9;;;;;;;;;;;;;
2020/12/02 13:24:22;;;;;;;15.6;7.2;;;;;;;;;;;;;
2020/12/02 13:26:47;;;;;;;10.8;6.4;;;;;;;;;;;;;
2020/12/02 13:29:14;;;;;;;9.6;5.6;;;;;;;;;;;;;
2020/12/02 13:31:37;;;;;;;14.1;7.5;;;;;;;;;;;;;
2020/12/02 13:34:03;;;;;;;12.5;6.4;;;;;;;;;;;;;
2020/12/02 13:36:28;;;;;;;14.9;8.5;;;;;;;;;;;;;
2020/12/02 13:38:53;;;;;;;15.1;6.9;;;;;;;;;;;;;
2020/12/02 13:41:20;;;;;;;11.8;5.9;;;;;;;;;;;;;
2020/12/02 13:43:45;;;;;;;8.3;6;;;;;;;;;;;;;
2020/12/02 13:46:10;;;;;;;17.7;7.7;;;;;;;;;;;;;
2020/12/02 13:48:36;;;;;;;17.1;6.7;;;;;;;;;;;;;
2020/12/02 13:51:01;;;;;;;11.8;7.1;;;;;;;;;;;;;
2020/12/02 13:53:26;;;;;;;9.8;6.7;;;;;;;;;;;;;
2020/12/02 13:55:51;;;;;;;10.3;6;;;;;;;;;;;;;
2020/12/02 13:58:17;;;;;;;11.4;7.4;;;;;;;;;;;;;
2020/12/02 14:00:42;;;;;;;14.2;6.4;;;;;;;;;;;;;
2020/12/02 14:03:10;;;;;;;13.7;5.7;;;;;;;;;;;;;
2020/12/02 14:05:34;;;;;;;10.4;6.3;;;;;;;;;;;;;
2020/12/02 14:07:59;;;;;;;11.4;6;;;;;;;;;;;;;
2020/12/02 14:10:24;;;;;;;13.9;6.9;;;;;;;;;;;;;
2020/12/02 14:12:49;;;;;;;19.5;7.8;;;;;;;;;;;;;
2020/12/02 14:15:15;;;;;;;15;7;;;;;;;;;;;;;
2020/12/02 14:17:41;;;;;;;13.2;6.2;;;;;;;;;;;;;
2020/12/02 14:20:05;;;;;;;8.9;5.3;;;;;;;;;;;;;
2020/12/02 14:22:31;;;;;;;10.4;5.7;;;;;;;;;;;;;
2020/12/02 14:24:55;;;;;;;11.1;6;;;;;;;;;;;;;
2020/12/02 14:27:20;;;;;;;10.2;5.8;;;;;;;;;;;;;
2020/12/02 14:29:46;;;;;;;10.6;6.7;;;;;;;;;;;;;
2020/12/02 14:32:11;;;;;;;11.9;7.3;;;;;;;;;;;;;
2020/12/02 14:34:37;;;;;;;11.9;5.8;;;;;;;;;;;;;
2020/12/02 14:37:03;;;;;;;10.3;6.5;;;;;;;;;;;;;
2020/12/02 14:39:28;;;;;;;7.3;4.6;;;;;;;;;;;;;
2020/12/02 14:41:54;;;;;;;14;6.1;;;;;;;;;;;;;
2020/12/02 14:44:19;;;;;;;20.5;8.1;;;;;;;;;;;;;
2020/12/02 14:46:44;;;;;;;10.9;6.9;;;;;;;;;;;;;
2020/12/02 14:49:09;;;;;;;13.4;6.9;;;;;;;;;;;;;
2020/12/02 14:51:34;;;;;;;11.3;7;;;;;;;;;;;;;
2020/12/02 14:54:01;;;;;;;14.9;6.4;;;;;;;;;;;;;
2020/12/02 14:56:26;;;;;;;11.4;6.3;;;;;;;;;;;;;
2020/12/02 14:58:53;;;;;;;12.7;6.3;;;;;;;;;;;;;
2020/12/02 15:01:18;;;;;;;15;7.3;;;;;;;;;;;;;
2020/12/02 15:03:43;;;;;;;18.2;8.3;;;;;;;;;;;;;
2020/12/02 15:06:16;;;;;;;13;6.5;;;;;;;;;;;;;
2020/12/02 15:08:38;;;;;;;9.8;6.2;;;;;;;;;;;;;
2020/12/02 15:11:06;;;;;;;14.2;6.1;;;;;;;;;;;;;
2020/12/02 15:13:31;;;;;;;9.2;5.9;;;;;;;;;;;;;
2020/12/02 15:15:59;;;;;;;12.7;5.8;;;;;;;;;;;;;
2020/12/02 15:18:22;;;;;;;8.4;5.1;;;;;;;;;;;;;
2020/12/02 15:20:49;;;;;;;16.6;7.5;;;;;;;;;;;;;
2020/12/02 15:23:14;;;;;;;18.5;8.1;;;;;;;;;;;;;
2020/12/02 15:25:39;;;;;;;14.7;6.6;;;;;;;;;;;;;
2020/12/02 15:28:04;;;;;;;14.8;5.7;;;;;;;;;;;;;
2020/12/02 15:30:29;;;;;;;11.7;5.2;;;;;;;;;;;;;
2020/12/02 15:32:56;;;;;;;9;6.4;;;;;;;;;;;;;
2020/12/02 15:35:21;;;;;;;10;5.9;;;;;;;;;;;;;
2020/12/02 15:37:46;;;;;;;16.3;6.4;;;;;;;;;;;;;
2020/12/02 15:40:14;;;;;;;11.1;6.6;;;;;;;;;;;;;
2020/12/02 15:42:39;;;;;;;13.4;6.6;;;;;;;;;;;;;
2020/12/02 15:45:07;;;;;;;16;6.3;;;;;;;;;;;;;
2020/12/02 15:47:32;;;;;;;8.5;6.9;;;;;;;;;;;;;
2020/12/02 15:49:57;;;;;;;10.3;5.8;;;;;;;;;;;;;
2020/12/02 15:52:22;;;;;;;11.9;5.5;;;;;;;;;;;;;
2020/12/02 15:54:47;;;;;;;11.3;5.2;;;;;;;;;;;;;
2020/12/02 15:57:12;;;;;;;17.3;6.5;;;;;;;;;;;;;
2020/12/02 15:59:42;;;;;;;10;6.6;;;;;;;;;;;;;
2020/12/02 16:02:04;;;;;;;12.3;6.4;;;;;;;;;;;;;
2020/12/02 16:04:30;;;;;;;11.2;6.2;;;;;;;;;;;;;
2020/12/02 16:06:55;;;;;;;15;7.7;;;;;;;;;;;;;
2020/12/02 16:09:21;;;;;;;9.6;5.1;;;;;;;;;;;;;
2020/12/02 16:11:46;;;;;;;13;7.3;;;;;;;;;;;;;
2020/12/02 16:14:12;;;;;;;12.1;6.3;;;;;;;;;;;;;
2020/12/02 16:16:37;;;;;;;19.9;6.6;;;;;;;;;;;;;
2020/12/02 16:19:04;;;;;;;11.3;7.1;;;;;;;;;;;;;
2020/12/02 16:21:29;;;;;;;18.6;7;;;;;;;;;;;;;
2020/12/02 16:23:55;;;;;;;13.8;7.5;;;;;;;;;;;;;
2020/12/02 16:26:20;;;;;;;15.2;7.2;;;;;;;;;;;;;
2020/12/02 16:28:45;;;;;;;17.3;7.6;;;;;;;;;;;;;
2020/12/02 16:31:13;;;;;;;9.5;7;;;;;;;;;;;;;
2020/12/02 16:33:38;;;;;;;14.6;7.4;;;;;;;;;;;;;
2020/12/02 16:36:03;;;;;;;12.3;8;;;;;;;;;;;;;
2020/12/02 16:38:28;;;;;;;21.6;8.2;;;;;;;;;;;;;
2020/12/02 16:40:53;;;;;;;10.2;5.6;;;;;;;;;;;;;
2020/12/02 16:43:19;;;;;;;18.6;7.8;;;;;;;;;;;;;
2020/12/02 16:45:47;;;;;;;14.9;6.9;;;;;;;;;;;;;
2020/12/02 16:48:11;;;;;;;22.4;8.4;;;;;;;;;;;;;
2020/12/02 16:50:38;;;;;;;17.1;7.3;;;;;;;;;;;;;
2020/12/02 16:53:03;;;;;;;16.3;8.3;;;;;;;;;;;;;
2020/12/02 16:55:28;;;;;;;9.4;6.4;;;;;;;;;;;;;
2020/12/02 16:57:54;;;;;;;12.3;7.1;;;;;;;;;;;;;
2020/12/02 17:00:20;;;;;;;14.9;7.3;;;;;;;;;;;;;
2020/12/02 17:02:45;;;;;;;11.3;5.8;;;;;;;;;;;;;
2020/12/02 17:05:14;;;;;;;13.7;7.6;;;;;;;;;;;;;
2020/12/02 17:07:40;;;;;;;13.3;6.4;;;;;;;;;;;;;
2020/12/02 17:10:05;;;;;;;15.6;7;;;;;;;;;;;;;
2020/12/02 17:12:31;;;;;;;10.4;7.3;;;;;;;;;;;;;
2020/12/02 17:14:55;;;;;;;17.4;7.4;;;;;;;;;;;;;
2020/12/02 17:17:20;;;;;;;14.7;7.9;;;;;;;;;;;;;
2020/12/02 17:19:45;;;;;;;10;7;;;;;;;;;;;;;
2020/12/02 17:22:11;;;;;;;15.5;7.3;;;;;;;;;;;;;
2020/12/02 17:24:36;;;;;;;15.4;7.4;;;;;;;;;;;;;
2020/12/02 17:27:01;;;;;;;14.2;7.7;;;;;;;;;;;;;
2020/12/02 17:29:27;;;;;;;22.5;8.3;;;;;;;;;;;;;
2020/12/02 17:31:51;;;;;;;12.2;6.2;;;;;;;;;;;;;
2020/12/02 17:34:16;;;;;;;9.1;6.3;;;;;;;;;;;;;
2020/12/02 17:36:41;;;;;;;15.3;7.9;;;;;;;;;;;;;
2020/12/02 17:39:07;;;;;;;13;8;;;;;;;;;;;;;
2020/12/02 17:41:33;;;;;;;19.8;8;;;;;;;;;;;;;
2020/12/02 17:43:59;;;;;;;19.6;8.1;;;;;;;;;;;;;
2020/12/02 17:46:27;;;;;;;18.9;7.5;;;;;;;;;;;;;
2020/12/02 17:48:52;;;;;;;18;8.5;;;;;;;;;;;;;
2020/12/02 17:51:17;;;;;;;16.2;7.4;;;;;;;;;;;;;
2020/12/02 17:53:42;;;;;;;10.9;6.8;;;;;;;;;;;;;
2020/12/02 17:56:09;;;;;;;18.3;7;;;;;;;;;;;;;
2020/12/02 17:58:34;;;;;;;11.2;6.8;;;;;;;;;;;;;
2020/12/02 18:00:59;;;;;;;15;7.7;;;;;;;;;;;;;
2020/12/02 18:03:24;;;;;;;13.4;7;;;;;;;;;;;;;
2020/12/02 18:05:49;;;;;;;10.9;6;;;;;;;;;;;;;
2020/12/02 18:08:15;;;;;;;15;8;;;;;;;;;;;;;
2020/12/02 18:10:41;;;;;;;15.4;7.3;;;;;;;;;;;;;
2020/12/02 18:13:06;;;;;;;11.7;6.9;;;;;;;;;;;;;